createdAt,value
2022-08-17T00:01:27.188Z,19.26
2022-08-17T00:04:30.398Z,19.26
2022-08-17T00:07:33.507Z,18.96
2022-08-17T00:10:36.563Z,18.70
2022-08-17T00:13:45.068Z,19.39
2022-08-17T00:16:55.513Z,19.16
2022-08-17T00:20:00.767Z,18.84
2022-08-17T00:23:05.502Z,18.76
2022-08-17T00:26:08.589Z,18.82
2022-08-17T00:29:19.553Z,19.20
2022-08-17T00:33:13.793Z,18.88
2022-08-17T00:35:46.365Z,19.12
2022-08-17T00:38:50.506Z,18.82
2022-08-17T00:41:53.322Z,18.73
2022-08-17T00:44:57.556Z,18.42
2022-08-17T00:48:00.341Z,18.76
2022-08-17T00:51:06.658Z,18.63
2022-08-17T00:54:11.896Z,18.93
2022-08-17T00:57:16.600Z,18.97
2022-08-17T01:00:26.589Z,19.64
2022-08-17T01:03:30.372Z,19.26
2022-08-17T01:06:33.985Z,19.60
2022-08-17T01:09:36.916Z,19.17
2022-08-17T01:12:39.728Z,19.42
2022-08-17T01:15:47.567Z,19.73
2022-08-17T01:18:51.968Z,19.77
2022-08-17T01:21:58.950Z,19.96
2022-08-17T01:25:07.220Z,19.76
2022-08-17T01:28:10.086Z,19.92
2022-08-17T01:31:15.185Z,19.95
2022-08-17T01:34:18.978Z,19.92
2022-08-17T01:37:28.361Z,20.04
2022-08-17T01:40:42.271Z,20.27
2022-08-17T01:43:46.113Z,20.11
2022-08-17T01:46:49.018Z,19.77
2022-08-17T01:49:52.033Z,19.71
2022-08-17T01:52:57.108Z,19.81
2022-08-17T01:56:02.752Z,19.66
2022-08-17T01:59:06.487Z,20.17
2022-08-17T02:02:09.740Z,19.97
2022-08-17T02:05:17.438Z,20.15
2022-08-17T02:08:20.760Z,19.82
2022-08-17T02:11:41.712Z,20.49
2022-08-17T02:14:44.463Z,20.05
2022-08-17T02:17:47.301Z,20.38
2022-08-17T02:20:57.527Z,19.78
2022-08-17T02:24:00.403Z,19.88
2022-08-17T02:27:04.912Z,19.96
2022-08-17T02:31:01.383Z,20.39
2022-08-17T02:33:41.709Z,19.88
2022-08-17T02:36:46.093Z,19.91
2022-08-17T02:39:48.915Z,19.12
2022-08-17T02:42:53.148Z,19.39
2022-08-17T02:45:56.092Z,19.47
2022-08-17T02:48:59.026Z,18.99
2022-08-17T02:52:03.901Z,19.71
2022-08-17T02:55:07.233Z,19.26
2022-08-17T02:58:12.302Z,19.43
2022-08-17T03:01:15.152Z,19.08
2022-08-17T03:04:17.991Z,18.78
2022-08-17T03:07:21.244Z,19.17
2022-08-17T03:10:26.672Z,19.31
2022-08-17T03:13:31.146Z,19.09
2022-08-17T03:16:39.362Z,19.31
2022-08-17T03:19:43.023Z,19.40
2022-08-17T03:22:48.129Z,18.99
2022-08-17T03:25:56.619Z,18.59
2022-08-17T03:29:00.868Z,18.74
2022-08-17T03:32:11.346Z,19.00
2022-08-17T03:35:15.319Z,18.49
2022-08-17T03:38:21.359Z,18.75
2022-08-17T03:41:24.221Z,19.11
2022-08-17T03:44:28.434Z,19.23
2022-08-17T03:47:48.684Z,19.06
2022-08-17T03:51:12.776Z,18.88
2022-08-17T03:54:34.518Z,19.93
2022-08-17T03:57:37.467Z,19.23
2022-08-17T04:00:45.650Z,19.32
2022-08-17T04:03:48.474Z,19.82
2022-08-17T04:06:51.244Z,20.25
2022-08-17T04:09:54.100Z,20.66
2022-08-17T04:12:58.348Z,20.18
2022-08-17T04:16:02.487Z,20.26
2022-08-17T04:19:07.378Z,20.36
2022-08-17T04:22:10.219Z,20.17
2022-08-17T04:25:34.142Z,20.12
2022-08-17T04:28:36.947Z,20.31
2022-08-17T04:31:41.152Z,20.34
2022-08-17T04:34:44.995Z,20.30
2022-08-17T04:37:47.883Z,20.42
2022-08-17T04:41:08.075Z,20.65
2022-08-17T04:44:11.678Z,21.20
2022-08-17T04:47:17.167Z,21.18
2022-08-17T04:50:19.899Z,21.13
2022-08-17T04:53:22.884Z,21.14
2022-08-17T04:56:26.290Z,21.19
2022-08-17T04:59:29.216Z,21.34
2022-08-17T05:02:33.472Z,21.69
2022-08-17T05:05:38.851Z,22.35
2022-08-17T05:08:41.786Z,22.85
2022-08-17T05:11:44.938Z,23.14
2022-08-17T05:14:47.953Z,23.16
2022-08-17T05:17:52.105Z,23.07
2022-08-17T05:20:55.000Z,23.30
2022-08-17T05:23:58.583Z,23.40
2022-08-17T05:27:06.648Z,23.49
2022-08-17T05:30:09.876Z,23.57
2022-08-17T05:33:15.803Z,23.71
2022-08-17T05:36:37.986Z,23.83
2022-08-17T05:39:43.803Z,23.98
2022-08-17T05:42:47.259Z,24.15
2022-08-17T05:45:57.090Z,24.24
2022-08-17T05:49:07.987Z,24.13
2022-08-17T05:52:19.803Z,24.19
2022-08-17T05:55:29.963Z,24.23
2022-08-17T05:58:37.012Z,24.20
2022-08-17T06:01:47.710Z,24.48
2022-08-17T06:05:09.925Z,24.25
2022-08-17T06:08:18.705Z,24.22
2022-08-17T06:11:26.991Z,24.38
2022-08-17T06:14:42.684Z,24.37
2022-08-17T06:17:45.630Z,24.49
2022-08-17T06:20:51.476Z,25.02
2022-08-17T06:23:58.297Z,25.11
2022-08-17T06:27:07.783Z,25.24
2022-08-17T06:30:13.976Z,25.37
2022-08-17T06:33:23.419Z,25.45
2022-08-17T06:36:34.916Z,25.55
2022-08-17T06:39:44.822Z,25.57
2022-08-17T06:43:02.000Z,25.89
2022-08-17T06:46:12.310Z,25.62
2022-08-17T06:49:20.026Z,25.62
2022-08-17T06:52:45.974Z,25.91
2022-08-17T06:55:54.642Z,25.98
2022-08-17T06:58:58.186Z,25.91
2022-08-17T07:02:04.878Z,25.79
2022-08-17T07:05:08.732Z,26.32
2022-08-17T07:08:18.664Z,26.35
2022-08-17T07:11:27.326Z,26.55
2022-08-17T07:14:36.808Z,26.49
2022-08-17T07:17:47.392Z,26.73
2022-08-17T07:20:52.493Z,26.67
2022-08-17T07:24:04.628Z,26.75
2022-08-17T07:27:12.506Z,26.97
2022-08-17T07:30:17.636Z,26.89
2022-08-17T07:33:25.848Z,26.87
2022-08-17T07:36:34.510Z,27.16
2022-08-17T07:40:15.550Z,27.23
2022-08-17T07:43:04.813Z,27.24
2022-08-17T07:46:32.923Z,27.27
2022-08-17T07:49:37.199Z,27.46
2022-08-17T07:52:51.274Z,27.25
2022-08-17T07:55:56.460Z,27.08
2022-08-17T07:59:07.623Z,27.08
2022-08-17T08:02:30.128Z,27.11
2022-08-17T08:05:50.617Z,27.24
2022-08-17T08:08:55.939Z,27.57
2022-08-17T08:12:00.465Z,27.56
2022-08-17T08:15:05.724Z,27.66
2022-08-17T08:18:52.482Z,27.82
2022-08-17T08:21:48.510Z,28.05
2022-08-17T08:24:57.937Z,27.89
2022-08-17T08:28:14.745Z,27.90
2022-08-17T08:31:21.972Z,28.06
2022-08-17T08:34:53.199Z,28.23
2022-08-17T08:37:57.945Z,28.45
2022-08-17T08:41:07.252Z,28.52
2022-08-17T08:44:18.717Z,28.50
2022-08-17T08:47:27.091Z,28.53
2022-08-17T08:50:38.013Z,28.59
2022-08-17T08:53:43.560Z,28.75
2022-08-17T08:57:19.736Z,28.87
2022-08-17T09:00:17.954Z,29.06
2022-08-17T09:03:50.885Z,29.19
2022-08-17T09:06:58.142Z,29.74
2022-08-17T09:10:05.186Z,31.51
2022-08-17T09:13:15.857Z,32.92
2022-08-17T09:16:23.251Z,34.06
2022-08-17T09:19:30.477Z,34.68
2022-08-17T09:22:35.109Z,35.65
2022-08-17T09:25:47.468Z,36.10
2022-08-17T09:28:51.750Z,36.90
2022-08-17T09:31:56.963Z,37.59
2022-08-17T09:35:02.080Z,37.52
2022-08-17T09:38:12.065Z,38.11
2022-08-17T09:41:17.779Z,36.87
2022-08-17T09:44:25.885Z,37.81
2022-08-17T09:47:33.841Z,38.20
2022-08-17T09:51:03.914Z,38.23
2022-08-17T09:54:34.802Z,38.24
2022-08-17T09:57:35.511Z,38.14
2022-08-17T10:00:42.441Z,38.67
2022-08-17T10:03:55.917Z,38.69
2022-08-17T10:07:02.931Z,38.86
2022-08-17T10:10:14.311Z,38.73
2022-08-17T10:13:21.415Z,38.80
2022-08-17T10:16:32.150Z,38.73
2022-08-17T10:19:39.549Z,38.32
2022-08-17T10:23:19.540Z,38.29
2022-08-17T10:26:25.873Z,37.64
2022-08-17T10:29:47.499Z,37.37
2022-08-17T10:32:55.523Z,36.99
2022-08-17T10:36:05.234Z,36.45
2022-08-17T10:39:19.925Z,36.37
2022-08-17T10:42:30.417Z,36.11
2022-08-17T10:45:38.081Z,36.10
2022-08-17T10:48:42.642Z,36.15
2022-08-17T10:51:48.032Z,36.06
2022-08-17T10:55:08.781Z,36.01
2022-08-17T10:58:21.137Z,36.30
2022-08-17T11:01:47.076Z,36.38
2022-08-17T11:04:55.854Z,37.17
2022-08-17T11:08:32.006Z,37.19
2022-08-17T11:11:52.610Z,36.67
2022-08-17T11:15:13.234Z,37.10
2022-08-17T11:18:31.463Z,36.43
2022-08-17T11:21:52.828Z,36.60
2022-08-17T11:24:55.919Z,36.25
2022-08-17T11:28:08.503Z,36.24
2022-08-17T11:31:38.402Z,35.37
2022-08-17T11:34:44.682Z,34.21
2022-08-17T11:37:52.278Z,33.67
2022-08-17T11:41:09.070Z,35.02
2022-08-17T11:44:24.192Z,35.20
2022-08-17T11:48:16.162Z,34.67
2022-08-17T11:51:32.228Z,34.73
2022-08-17T11:54:39.576Z,35.15
2022-08-17T11:58:06.503Z,34.75
2022-08-17T12:01:13.636Z,35.14
2022-08-17T12:04:25.631Z,35.57
2022-08-17T12:07:30.259Z,35.48
2022-08-17T12:10:35.549Z,35.36
2022-08-17T12:13:43.395Z,35.80
2022-08-17T12:16:58.852Z,35.45
2022-08-17T12:20:10.252Z,34.75
2022-08-17T12:23:18.528Z,35.24
2022-08-17T12:26:23.206Z,34.87
2022-08-17T12:29:35.566Z,34.38
2022-08-17T12:32:48.172Z,35.55
2022-08-17T12:35:59.439Z,34.50
2022-08-17T12:39:13.772Z,35.76
2022-08-17T12:42:22.846Z,35.21
2022-08-17T12:45:27.152Z,35.91
2022-08-17T12:48:32.268Z,35.40
2022-08-17T12:51:35.536Z,35.02
2022-08-17T12:54:53.694Z,35.19
2022-08-17T12:57:58.501Z,34.99
2022-08-17T13:01:05.486Z,35.75
2022-08-17T13:04:14.182Z,37.08
2022-08-17T13:07:28.248Z,36.52
2022-08-17T13:10:33.254Z,36.32
2022-08-17T13:13:39.164Z,36.14
2022-08-17T13:16:48.369Z,36.76
2022-08-17T13:19:52.716Z,36.57
2022-08-17T13:22:57.949Z,36.81
2022-08-17T13:26:04.504Z,36.62
2022-08-17T13:29:24.132Z,36.65
2022-08-17T13:32:35.978Z,36.81
2022-08-17T13:35:50.535Z,35.59
2022-08-17T13:39:05.557Z,34.38
2022-08-17T13:42:28.759Z,35.07
2022-08-17T13:45:39.198Z,34.78
2022-08-17T13:48:42.267Z,35.17
2022-08-17T13:51:47.966Z,35.59
2022-08-17T13:54:52.626Z,34.78
2022-08-17T13:58:05.101Z,35.71
2022-08-17T14:01:25.232Z,35.77
2022-08-17T14:04:31.647Z,35.91
2022-08-17T14:07:37.361Z,35.42
2022-08-17T14:10:40.158Z,34.09
2022-08-17T14:13:43.013Z,33.26
2022-08-17T14:16:46.845Z,32.48
2022-08-17T14:19:49.865Z,31.72
2022-08-17T14:22:55.779Z,31.47
2022-08-17T14:25:58.605Z,33.87
2022-08-17T14:29:01.759Z,33.87
2022-08-17T14:32:18.028Z,33.14
2022-08-17T14:35:23.271Z,33.51
2022-08-17T14:38:28.055Z,33.25
2022-08-17T14:41:31.037Z,33.35
2022-08-17T14:44:33.937Z,34.59
2022-08-17T14:47:37.550Z,33.69
2022-08-17T14:50:41.675Z,32.65
2022-08-17T14:53:46.220Z,32.36
2022-08-17T14:56:48.993Z,32.62
2022-08-17T14:59:59.870Z,32.36
2022-08-17T15:03:03.135Z,32.35
2022-08-17T15:06:06.329Z,32.01
2022-08-17T15:09:11.024Z,31.51
2022-08-17T15:12:17.142Z,30.88
2022-08-17T15:15:19.971Z,31.06
2022-08-17T15:18:22.919Z,31.37
2022-08-17T15:21:25.731Z,30.62
2022-08-17T15:24:30.196Z,30.63
2022-08-17T15:27:33.108Z,30.35
2022-08-17T15:30:36.295Z,29.88
2022-08-17T15:33:39.250Z,30.18
2022-08-17T15:36:49.235Z,29.73
2022-08-17T15:39:54.136Z,29.52
2022-08-17T15:42:57.885Z,29.12
2022-08-17T15:46:02.164Z,29.69
2022-08-17T15:49:05.019Z,29.32
2022-08-17T15:52:16.148Z,29.35
2022-08-17T15:55:24.181Z,28.96
2022-08-17T15:58:32.198Z,28.93
2022-08-17T16:02:15.426Z,29.42
2022-08-17T16:05:03.527Z,29.05
2022-08-17T16:08:06.696Z,28.90
2022-08-17T16:11:11.272Z,28.78
2022-08-17T16:14:14.056Z,28.74
2022-08-17T16:17:38.535Z,28.30
2022-08-17T16:20:40.747Z,28.03
2022-08-17T16:23:43.708Z,27.93
2022-08-17T16:26:47.831Z,28.12
2022-08-17T16:29:55.522Z,27.78
2022-08-17T16:33:00.328Z,27.74
2022-08-17T16:36:03.239Z,27.51
2022-08-17T16:39:06.135Z,27.22
2022-08-17T16:42:24.561Z,27.06
2022-08-17T16:45:28.919Z,26.92
2022-08-17T16:48:32.004Z,26.73
2022-08-17T16:51:34.908Z,26.75
2022-08-17T16:54:38.414Z,26.49
2022-08-17T16:57:47.550Z,26.45
2022-08-17T17:00:59.990Z,26.24
2022-08-17T17:04:04.862Z,25.99
2022-08-17T17:07:12.142Z,25.81
2022-08-17T17:10:17.054Z,25.74
2022-08-17T17:13:25.788Z,25.84
2022-08-17T17:16:35.013Z,25.35
2022-08-17T17:19:39.023Z,25.35
2022-08-17T17:22:45.666Z,25.51
2022-08-17T17:25:54.877Z,25.46
2022-08-17T17:29:05.021Z,25.43
2022-08-17T17:32:17.301Z,25.57
2022-08-17T17:35:24.327Z,25.08
2022-08-17T17:38:30.322Z,25.04
2022-08-17T17:41:38.211Z,24.82
2022-08-17T17:44:45.887Z,24.74
2022-08-17T17:47:52.857Z,24.48
2022-08-17T17:51:00.383Z,24.52
2022-08-17T17:54:09.801Z,24.66
2022-08-17T17:57:21.433Z,25.10
2022-08-17T18:00:31.596Z,24.44
2022-08-17T18:03:49.339Z,24.38
2022-08-17T18:07:03.968Z,24.68
2022-08-17T18:10:19.445Z,25.02
2022-08-17T18:13:35.564Z,25.09
2022-08-17T18:16:42.949Z,24.67
2022-08-17T18:19:47.393Z,25.25
2022-08-17T18:22:50.585Z,25.28
2022-08-17T18:25:54.819Z,25.10
2022-08-17T18:28:58.233Z,24.96
2022-08-17T18:32:16.327Z,24.96
2022-08-17T18:35:35.267Z,25.18
2022-08-17T18:38:39.050Z,25.49
2022-08-17T18:41:43.525Z,25.19
2022-08-17T18:44:49.580Z,25.21
2022-08-17T18:47:56.047Z,25.28
2022-08-17T18:51:01.363Z,25.07
2022-08-17T18:54:06.802Z,24.93
2022-08-17T18:57:12.879Z,25.06
2022-08-17T19:00:17.494Z,25.02
2022-08-17T19:03:25.296Z,25.06
2022-08-17T19:06:37.644Z,25.23
2022-08-17T19:09:46.708Z,25.30
2022-08-17T19:12:53.936Z,24.83
2022-08-17T19:16:14.491Z,24.70
2022-08-17T19:19:22.138Z,24.40
2022-08-17T19:22:29.183Z,24.11
2022-08-17T19:25:35.663Z,24.02
2022-08-17T19:28:42.512Z,24.23
2022-08-17T19:31:51.524Z,24.19
2022-08-17T19:35:01.137Z,24.41
2022-08-17T19:38:13.161Z,24.46
2022-08-17T19:41:20.804Z,23.95
2022-08-17T19:44:32.317Z,23.98
2022-08-17T19:47:58.551Z,23.91
2022-08-17T19:51:05.332Z,23.77
2022-08-17T19:54:24.364Z,23.48
2022-08-17T19:57:39.384Z,23.30
2022-08-17T20:00:47.807Z,23.40
2022-08-17T20:04:01.043Z,23.36
2022-08-17T20:07:13.610Z,23.31
2022-08-17T20:10:22.020Z,23.36
2022-08-17T20:13:33.202Z,23.66
2022-08-17T20:16:38.044Z,23.56
2022-08-17T20:19:48.243Z,23.57
2022-08-17T20:22:54.747Z,23.45
2022-08-17T20:26:04.419Z,23.49
2022-08-17T20:29:09.572Z,23.17
2022-08-17T20:32:19.663Z,23.36
2022-08-17T20:35:24.536Z,23.25
2022-08-17T20:38:39.505Z,22.97
2022-08-17T20:42:03.385Z,23.00
2022-08-17T20:45:21.018Z,23.13
2022-08-17T20:48:37.920Z,22.88
2022-08-17T20:52:00.847Z,22.94
2022-08-17T20:55:05.199Z,22.70
2022-08-17T20:58:23.348Z,23.10
2022-08-17T21:01:39.077Z,22.76
2022-08-17T21:04:47.377Z,23.11
2022-08-17T21:07:55.707Z,23.02
2022-08-17T21:11:00.161Z,23.10
2022-08-17T21:14:08.441Z,23.23
2022-08-17T21:17:29.733Z,23.31
2022-08-17T21:20:37.574Z,23.37
2022-08-17T21:23:52.595Z,23.40
2022-08-17T21:27:02.140Z,23.30
2022-08-17T21:30:15.883Z,23.62
2022-08-17T21:33:25.587Z,23.09
2022-08-17T21:36:28.499Z,23.12
2022-08-17T21:39:33.219Z,23.02
2022-08-17T21:42:38.413Z,22.98
2022-08-17T21:45:43.023Z,22.64
2022-08-17T21:48:49.443Z,22.57
2022-08-17T21:51:57.784Z,22.39
2022-08-17T21:55:02.541Z,22.41
2022-08-17T21:58:13.719Z,22.30
2022-08-17T22:01:22.690Z,22.27
2022-08-17T22:04:31.746Z,22.12
2022-08-17T22:07:36.147Z,21.71
2022-08-17T22:10:41.216Z,21.80
2022-08-17T22:13:44.337Z,21.57
2022-08-17T22:16:47.190Z,21.69
2022-08-17T22:19:53.534Z,21.83
2022-08-17T22:23:24.894Z,21.36
2022-08-17T22:26:55.366Z,21.33
2022-08-17T22:29:59.720Z,21.09
2022-08-17T22:33:03.254Z,21.30
2022-08-17T22:36:11.774Z,21.16
2022-08-17T22:39:29.403Z,21.15
2022-08-17T22:42:47.380Z,21.18
2022-08-17T22:45:51.572Z,21.08
2022-08-17T22:48:57.768Z,20.77
2022-08-17T22:52:03.262Z,21.01
2022-08-17T22:55:28.078Z,21.04
2022-08-17T22:58:58.895Z,21.14
2022-08-17T23:02:14.207Z,21.03
2022-08-17T23:05:22.937Z,21.07
2022-08-17T23:08:27.284Z,20.83
2022-08-17T23:11:36.593Z,20.88
2022-08-17T23:14:57.457Z,20.89
2022-08-17T23:18:04.815Z,20.60
2022-08-17T23:21:07.887Z,20.44
2022-08-17T23:24:13.619Z,20.41
2022-08-17T23:27:16.435Z,20.37
2022-08-17T23:30:19.443Z,20.25
2022-08-17T23:33:25.736Z,20.33
2022-08-17T23:36:29.543Z,20.31
2022-08-17T23:39:34.029Z,20.37
2022-08-17T23:42:39.852Z,20.23
2022-08-17T23:45:49.211Z,20.32
2022-08-17T23:48:54.166Z,20.26
2022-08-17T23:51:57.007Z,20.24
2022-08-17T23:55:01.253Z,20.10
2022-08-17T23:58:05.448Z,20.26
